Time;durP1;ratioP1;P1;durP2;ratioP2;P2;SDS_P1;SDS_P2;PMS_P1;PMS_P2;Temp;Humidity;BMP_temperature;BMP_pressure;BME280_temperature;BME280_humidity;BME280_pressure;Samples;Min_cycle;Max_cycle;Signal;HPM_P1;HPM_P2
2024/04/20 00:00:27;;;;;;;19.27;10.10;;;205.20;2252.80;;;;;;5415847;26;20011;-77
2024/04/20 00:02:53;;;;;;;20.67;10.38;;;205.30;2252.80;;;;;;5395865;26;20474;-78
2024/04/20 00:05:20;;;;;;;18.10;9.93;;;205.40;2252.80;;;;;;5390012;26;20019;-78
2024/04/20 00:07:49;;;;;;;21.75;10.30;;;205.40;2252.80;;;;;;5382298;26;20324;-78
2024/04/20 00:10:18;;;;;;;20.25;9.43;;;205.10;2252.80;;;;;;5383221;26;20008;-78
2024/04/20 00:12:44;;;;;;;17.52;8.90;;;204.90;2252.80;;;;;;5383151;26;20008;-78
2024/04/20 00:15:10;;;;;;;20.50;9.55;;;205.00;2252.80;;;;;;5385087;26;20025;-78
2024/04/20 00:17:37;;;;;;;18.30;9.85;;;205.00;2252.80;;;;;;5384472;26;20008;-77
2024/04/20 00:20:04;;;;;;;23.25;10.63;;;205.00;2252.80;;;;;;5384906;26;20353;-77
2024/04/20 00:22:30;;;;;;;21.08;11.68;;;205.10;2252.80;;;;;;5396555;26;20325;-77
2024/04/20 00:24:56;;;;;;;20.45;10.05;;;205.00;2252.80;;;;;;5420078;26;20007;-76
2024/04/20 00:27:21;;;;;;;23.65;10.70;;;180.10;2252.80;;;;;;5420245;26;20000;-77
2024/04/20 00:29:47;;;;;;;;;;;179.90;2252.80;;;;;;5414734;26;19997;-78
2024/04/20 00:32:13;;;;;;;18.98;10.13;;;179.80;2252.80;;;;;;5420210;26;19925;-78
2024/04/20 00:34:38;;;;;;;;;;;179.80;2252.80;;;;;;5421012;26;20072;-78
2024/04/20 00:37:06;;;;;;;23.13;10.60;;;179.70;2252.80;;;;;;5420369;26;20256;-79
2024/04/20 00:39:32;;;;;;;26.08;10.88;;;179.90;2252.80;;;;;;5418250;26;20028;-78
2024/04/20 00:41:58;;;;;;;18.88;9.60;;;179.80;2252.80;;;;;;5411843;26;20440;-78
2024/04/20 00:44:24;;;;;;;19.60;10.70;;;179.70;2252.80;;;;;;5411200;26;20065;-79
2024/04/20 00:46:54;;;;;;;20.77;10.98;;;179.90;2252.80;;;;;;5420210;26;20011;-78
2024/04/20 00:49:21;;;;;;;20.48;9.30;;;179.70;2252.80;;;;;;5418321;26;20010;-78
2024/04/20 00:51:49;;;;;;;18.98;10.43;;;179.60;2252.80;;;;;;5420208;26;20068;-79
2024/04/20 00:54:15;;;;;;;22.73;10.82;;;179.90;2252.80;;;;;;5419834;26;19995;-79
2024/04/20 00:56:42;;;;;;;19.90;11.73;;;179.80;2252.80;;;;;;5419676;26;19999;-77
2024/04/20 00:59:08;;;;;;;18.80;10.60;;;179.70;2252.80;;;;;;5419144;26;20018;-77
2024/04/20 01:01:34;;;;;;;15.88;10.05;;;179.70;2252.80;;;;;;5419758;26;19999;-77
2024/04/20 01:04:00;;;;;;;17.73;10.70;;;179.70;2252.80;;;;;;5419907;26;19992;-78
2024/04/20 01:06:25;;;;;;;;;;;179.70;2252.80;;;;;;5412590;26;20044;-77
2024/04/20 01:08:52;;;;;;;19.73;11.35;;;179.70;2252.80;;;;;;5408463;26;19926;-77
2024/04/20 01:11:18;;;;;;;19.13;9.95;;;179.40;2252.80;;;;;;5404942;26;20032;-78
2024/04/20 01:13:57;;;;;;;17.73;10.88;;;179.40;2252.80;;;;;;5416940;26;20003;-77
2024/04/20 01:16:26;;;;;;;21.48;10.60;;;179.40;2252.80;;;;;;5417875;26;20439;-78
2024/04/20 01:18:52;;;;;;;17.95;10.10;;;179.30;2252.80;;;;;;5420167;26;20016;-78
2024/04/20 01:21:20;;;;;;;22.10;11.13;;;179.30;2252.80;;;;;;5419462;26;20428;-78
2024/04/20 01:23:53;;;;;;;24.95;11.00;;;179.40;2252.80;;;;;;5417485;26;20000;-78
2024/04/20 01:26:19;;;;;;;21.80;10.48;;;179.30;2252.80;;;;;;5419418;26;20007;-78
2024/04/20 01:28:45;;;;;;;19.10;11.05;;;154.50;2252.80;;;;;;5419334;26;20000;-78
2024/04/20 01:31:11;;;;;;;20.65;11.25;;;179.20;2252.80;;;;;;5419082;26;20007;-78
2024/04/20 01:33:36;;;;;;;;;;;154.50;2252.80;;;;;;5416726;26;20000;-79
2024/04/20 01:36:02;;;;;;;29.70;13.02;;;154.50;2252.80;;;;;;5419558;26;19929;-78
2024/04/20 01:38:28;;;;;;;22.52;12.43;;;179.20;2252.80;;;;;;5402374;26;20011;-78
2024/04/20 01:40:55;;;;;;;24.02;13.25;;;179.30;2252.80;;;;;;5411550;26;20405;-78
2024/04/20 01:43:21;;;;;;;;;;;179.30;2252.80;;;;;;5420082;26;19999;-78
2024/04/20 01:45:47;;;;;;;24.02;12.45;;;179.20;2252.80;;;;;;5419464;26;19925;-78
2024/04/20 01:48:12;;;;;;;;;;;179.20;2252.80;;;;;;5417780;26;20007;-78
2024/04/20 01:50:38;;;;;;;23.30;12.45;;;154.50;2252.80;;;;;;5417515;26;19998;-78
2024/04/20 01:53:04;;;;;;;;;;;154.50;2252.80;;;;;;5418041;26;20057;-78
2024/04/20 01:55:30;;;;;;;27.33;14.13;;;154.50;2252.80;;;;;;5419112;26;19925;-78
2024/04/20 01:57:56;;;;;;;;;;;154.40;2252.80;;;;;;5406115;26;20070;-77
2024/04/20 02:00:22;;;;;;;22.48;10.65;;;154.50;2252.80;;;;;;5408573;26;19964;-78
2024/04/20 02:02:49;;;;;;;;;;;154.40;2252.80;;;;;;5419638;26;20002;-78
2024/04/20 02:05:15;;;;;;;31.42;15.23;;;154.20;2252.80;;;;;;5417181;26;19924;-78
2024/04/20 02:07:41;;;;;;;;;;;154.10;2252.80;;;;;;5419699;26;20338;-79
2024/04/20 02:10:08;;;;;;;24.70;14.00;;;154.10;2252.80;;;;;;5416947;26;20357;-78
2024/04/20 02:12:34;;;;;;;22.65;13.88;;;154.10;2252.80;;;;;;5417575;26;20447;-78
2024/04/20 02:14:59;;;;;;;;;;;154.10;2252.80;;;;;;5419800;26;20004;-78
2024/04/20 02:17:25;;;;;;;24.48;14.45;;;154.10;2252.80;;;;;;5417153;26;19957;-78
2024/04/20 02:19:51;;;;;;;;;;;153.90;2252.80;;;;;;5419663;26;19999;-78
2024/04/20 02:22:17;;;;;;;30.40;15.68;;;154.00;2252.80;;;;;;5419049;26;19925;-78
2024/04/20 02:24:42;;;;;;;31.33;15.20;;;154.00;2252.80;;;;;;5417752;26;20084;-78
2024/04/20 02:27:08;;;;;;;25.15;14.52;;;154.20;2252.80;;;;;;5416350;26;20007;-79
2024/04/20 02:29:34;;;;;;;31.13;16.38;;;154.30;2252.80;;;;;;5416914;26;20003;-79
2024/04/20 02:32:00;;;;;;;32.47;17.73;;;154.40;2252.80;;;;;;5418881;26;20003;-78
2024/04/20 02:34:26;;;;;;;;;;;154.40;2252.80;;;;;;5414334;26;20015;-78
2024/04/20 02:37:11;;;;;;;33.97;17.55;;;154.40;2252.80;;;;;;5417106;26;19936;-77
2024/04/20 02:39:38;;;;;;;33.70;19.05;;;154.20;2252.80;;;;;;5416163;26;20006;-78
2024/04/20 02:42:05;;;;;;;32.40;18.40;;;153.90;2252.80;;;;;;5418784;26;20007;-79
2024/04/20 02:44:31;;;;;;;35.72;19.92;;;154.10;2252.80;;;;;;5416689;26;19996;-78
2024/04/20 02:46:57;;;;;;;;;;;154.20;2252.80;;;;;;5417035;26;20327;-78
2024/04/20 02:49:23;;;;;;;35.90;19.42;;;154.20;2252.80;;;;;;5416195;26;19925;-78
2024/04/20 02:51:49;;;;;;;35.00;19.83;;;154.20;2252.80;;;;;;5418657;26;19999;-78
2024/04/20 02:54:16;;;;;;;36.00;19.05;;;154.20;2252.80;;;;;;5417503;26;19999;-78
2024/04/20 02:56:42;;;;;;;39.72;19.23;;;154.20;2252.80;;;;;;5416103;26;20008;-78
2024/04/20 02:59:08;;;;;;;33.88;19.38;;;154.10;2252.80;;;;;;5416591;26;20000;-78
2024/04/20 03:01:34;;;;;;;33.35;18.80;;;154.20;2252.80;;;;;;5415989;26;19999;-78
2024/04/20 03:04:00;;;;;;;;;;;154.10;2252.80;;;;;;5418167;26;20076;-78
2024/04/20 03:06:25;;;;;;;31.58;20.08;;;154.10;2252.80;;;;;;5417828;26;20259;-78
2024/04/20 03:08:51;;;;;;;40.80;20.60;;;154.00;2252.80;;;;;;5415974;26;20006;-77
2024/04/20 03:11:17;;;;;;;;;;;154.00;2252.80;;;;;;5418312;26;20011;-77
2024/04/20 03:13:43;;;;;;;40.85;19.48;;;153.90;2252.80;;;;;;5418136;26;19933;-77
2024/04/20 03:16:08;;;;;;;;;;;153.90;2252.80;;;;;;5418479;26;20006;-77
2024/04/20 03:18:37;;;;;;;33.70;17.88;;;153.90;2252.80;;;;;;5417020;26;19925;-77
2024/04/20 03:21:03;;;;;;;44.67;19.90;;;153.80;2252.80;;;;;;5417665;26;20015;-77
2024/04/20 03:23:29;;;;;;;34.10;19.20;;;153.80;2252.80;;;;;;5414809;26;20347;-77
2024/04/20 03:25:55;;;;;;;;;;;153.80;2252.80;;;;;;5418155;26;19996;-78
2024/04/20 03:28:21;;;;;;;31.73;17.65;;;153.70;2252.80;;;;;;5409582;26;19998;-77
2024/04/20 03:30:46;;;;;;;41.38;18.73;;;153.70;2252.80;;;;;;5402158;26;20331;-77
2024/04/20 03:33:16;;;;;;;33.58;18.55;;;153.60;2252.80;;;;;;5409184;26;20001;-78
2024/04/20 03:35:42;;;;;;;32.17;18.50;;;153.70;2252.80;;;;;;5404039;26;20000;-78
2024/04/20 03:38:08;;;;;;;;;;;153.70;2252.80;;;;;;5420508;26;20004;-78
2024/04/20 03:40:33;;;;;;;32.63;17.20;;;153.70;2252.80;;;;;;5421292;26;20371;-77
2024/04/20 03:42:59;;;;;;;;;;;153.60;2252.80;;;;;;5421607;26;19995;-78
2024/04/20 03:45:25;;;;;;;36.22;19.38;;;128.90;2252.80;;;;;;5420757;26;19925;-78
2024/04/20 03:47:50;;;;;;;;;;;153.60;2252.80;;;;;;5421770;26;19999;-78
2024/04/20 03:50:18;;;;;;;36.42;19.05;;;153.60;2252.80;;;;;;5420758;26;19949;-77
2024/04/20 03:52:46;;;;;;;40.60;20.15;;;128.90;2252.80;;;;;;5418769;26;19996;-78
2024/04/20 03:55:13;;;;;;;38.17;19.48;;;153.60;2252.80;;;;;;5419360;26;20342;-77
2024/04/20 03:57:40;;;;;;;38.80;17.95;;;128.90;2252.80;;;;;;5418715;26;19995;-78
2024/04/20 04:00:08;;;;;;;;;;;153.60;2252.80;;;;;;5420571;26;20501;-78
2024/04/20 04:02:34;;;;;;;30.50;16.35;;;128.90;2252.80;;;;;;5403564;26;20002;-77
2024/04/20 04:04:59;;;;;;;;;;;128.90;2252.80;;;;;;5399889;26;20422;-77
2024/04/20 04:07:25;;;;;;;40.72;18.73;;;128.90;2252.80;;;;;;5396045;26;19926;-78
2024/04/20 04:09:51;;;;;;;;;;;128.80;2252.80;;;;;;5388849;26;20010;-77
2024/04/20 04:12:17;;;;;;;33.97;18.40;;;128.90;2252.80;;;;;;5396230;26;19925;-78
2024/04/20 04:14:42;;;;;;;;;;;153.60;2252.80;;;;;;5408827;26;20092;-78
2024/04/20 04:17:08;;;;;;;35.70;18.60;;;153.60;2252.80;;;;;;5397773;26;20295;-78
2024/04/20 04:19:34;;;;;;;;;;;153.80;2252.80;;;;;;5389709;26;20000;-78
2024/04/20 04:22:00;;;;;;;35.33;17.02;;;153.90;2252.80;;;;;;5454073;26;19933;-79
2024/04/20 04:24:25;;;;;;;;;;;154.00;2252.80;;;;;;5396101;26;20335;-78
2024/04/20 04:26:51;;;;;;;40.00;19.70;;;154.20;2252.80;;;;;;5402922;26;19965;-78
2024/04/20 04:29:17;;;;;;;42.33;22.75;;;154.30;2252.80;;;;;;5397157;26;20008;-78
2024/04/20 04:31:43;;;;;;;;;;;154.50;2252.80;;;;;;5392818;26;20023;-78
2024/04/20 04:34:09;;;;;;;38.03;18.33;;;179.20;2252.80;;;;;;5408905;26;19924;-78
2024/04/20 04:36:36;;;;;;;38.63;20.95;;;179.20;2252.80;;;;;;5397487;26;19996;-78
2024/04/20 04:39:04;;;;;;;45.67;22.55;;;179.30;2252.80;;;;;;5399849;26;19996;-79
2024/04/20 04:41:29;;;;;;;45.67;20.52;;;179.40;2252.80;;;;;;5411076;26;20085;-77
2024/04/20 04:43:55;;;;;;;;;;;179.50;2252.80;;;;;;5394433;26;19999;-78
2024/04/20 04:46:21;;;;;;;49.90;23.98;;;179.60;2252.80;;;;;;5393795;26;19926;-77
2024/04/20 04:48:46;;;;;;;;;;;179.70;2252.80;;;;;;5389698;26;20000;-78
2024/04/20 04:51:12;;;;;;;48.35;23.85;;;179.90;2252.80;;;;;;5404910;26;19924;-76
2024/04/20 04:53:38;;;;;;;;;;;180.10;2252.80;;;;;;5404408;26;20011;-76
2024/04/20 04:56:04;;;;;;;58.88;26.10;;;180.10;2252.80;;;;;;5402310;26;19926;-77
2024/04/20 04:58:30;;;;;;;64.85;29.10;;;204.90;2252.80;;;;;;5400371;26;20008;-76
2024/04/20 05:00:56;;;;;;;50.50;27.58;;;205.00;2252.80;;;;;;5408135;26;20007;-77
2024/04/20 05:03:21;;;;;;;;;;;205.20;2252.80;;;;;;5395084;26;20462;-76
2024/04/20 05:05:50;;;;;;;60.28;29.90;;;205.30;2252.80;;;;;;5392155;26;19937;-79
2024/04/20 05:08:16;;;;;;;59.42;28.77;;;205.40;2252.80;;;;;;5408591;26;19997;-77
2024/04/20 05:10:42;;;;;;;56.35;29.75;;;205.50;2252.80;;;;;;5413571;26;20007;-78
2024/04/20 05:13:08;;;;;;;;;;;205.60;2252.80;;;;;;5392161;26;19999;-79
2024/04/20 05:15:34;;;;;;;68.93;31.55;;;205.50;2252.80;;;;;;5399747;26;19926;-77
2024/04/20 05:18:00;;;;;;;59.97;32.30;;;205.60;2252.80;;;;;;5384688;26;20008;-78
2024/04/20 05:20:26;;;;;;;67.82;33.53;;;230.40;2252.80;;;;;;5387453;26;19997;-78
2024/04/20 05:22:52;;;;;;;63.67;33.15;;;230.40;2252.80;;;;;;5405284;26;19999;-78
2024/04/20 05:25:19;;;;;;;66.47;34.78;;;230.50;2252.80;;;;;;5392547;26;20000;-78
2024/04/20 05:27:45;;;;;;;67.50;36.08;;;205.60;2252.80;;;;;;5395050;26;20431;-78
2024/04/20 05:30:11;;;;;;;61.33;35.28;;;205.70;2252.80;;;;;;5384310;26;20008;-78
2024/04/20 05:32:38;;;;;;;61.28;33.60;;;205.40;2252.80;;;;;;5403991;26;20010;-79
2024/04/20 05:35:04;;;;;;;64.45;33.92;;;205.40;2252.80;;;;;;5386791;26;20015;-79
2024/04/20 05:37:30;;;;;;;62.40;34.53;;;205.50;2252.80;;;;;;5390168;26;20004;-81
2024/04/20 05:39:56;;;;;;;57.15;32.22;;;205.70;2252.80;;;;;;5395072;26;20011;-78
2024/04/20 05:42:22;;;;;;;59.38;31.48;;;205.70;2252.80;;;;;;5397537;26;19997;-79
2024/04/20 05:44:48;;;;;;;67.25;31.55;;;230.40;2252.80;;;;;;5402328;26;20015;-79
2024/04/20 05:47:14;;;;;;;55.20;31.67;;;205.60;2252.80;;;;;;5399770;26;20003;-78
2024/04/20 05:49:40;;;;;;;60.85;31.15;;;205.60;2252.80;;;;;;5398028;26;20000;-79
2024/04/20 05:52:06;;;;;;;59.72;32.78;;;205.70;2252.80;;;;;;5397664;26;20004;-79
2024/04/20 05:54:32;;;;;;;64.03;31.88;;;230.40;2252.80;;;;;;5398757;26;20018;-83
2024/04/20 05:56:58;;;;;;;63.03;33.42;;;230.60;2252.80;;;;;;5387927;26;20003;-81
2024/04/20 05:59:24;;;;;;;60.45;32.75;;;230.60;2252.80;;;;;;5409075;26;20438;-79
2024/04/20 06:01:49;;;;;;;;;;;230.60;2252.80;;;;;;5404472;26;19999;-79
2024/04/20 06:04:16;;;;;;;66.15;33.45;;;230.80;2252.80;;;;;;5416341;26;19936;-82
2024/04/20 06:06:42;;;;;;;61.78;32.92;;;231.00;2252.80;;;;;;5412246;26;20072;-77
2024/04/20 06:09:08;;;;;;;63.83;32.40;;;231.20;2252.80;;;;;;5391668;26;20007;-79
2024/04/20 06:11:36;;;;;;;63.28;36.53;;;231.30;2252.80;;;;;;5392694;26;20007;-78
2024/04/20 06:14:01;;;;;;;64.13;32.90;;;256.10;2252.80;;;;;;5400911;26;20014;-79
2024/04/20 06:16:28;;;;;;;54.15;30.45;;;256.30;2252.80;;;;;;5394976;26;20363;-78
2024/04/20 06:18:53;;;;;;;49.58;27.92;;;256.60;2252.80;;;;;;5388597;26;20083;-77
2024/04/20 06:21:19;;;;;;;46.78;26.95;;;256.80;2252.80;;;;;;5403631;26;19996;-80
2024/04/20 06:23:45;;;;;;;;;;;281.70;2278.40;;;;;;5387936;26;20015;-80
2024/04/20 06:26:11;;;;;;;47.25;24.13;;;281.70;2278.40;;;;;;5384277;26;19932;-75
2024/04/20 06:28:37;;;;;;;;;;;281.80;2278.40;;;;;;5393920;26;20004;-77
2024/04/20 06:31:04;;;;;;;46.05;24.17;;;281.90;2278.40;;;;;;5390145;26;19933;-75
2024/04/20 06:33:30;;;;;;;51.22;26.48;;;282.00;2278.40;;;;;;5394744;26;20351;-77
2024/04/20 06:35:56;;;;;;;43.92;24.73;;;282.20;2278.40;;;;;;5403340;26;19995;-75
2024/04/20 06:38:22;;;;;;;63.33;26.35;;;;;;;;;;5390402;26;20015;-75
2024/04/20 06:40:48;;;;;;;48.05;23.48;;;282.50;2278.40;;;;;;5397196;26;20084;-76
2024/04/20 06:43:14;;;;;;;44.17;24.75;;;282.50;2278.40;;;;;;5405894;26;19996;-75
2024/04/20 06:45:41;;;;;;;48.53;24.65;;;307.30;2304.00;;;;;;5414272;26;20000;-76
2024/04/20 06:48:07;;;;;;;39.65;20.00;;;307.60;2304.00;;;;;;5398212;26;20098;-77
2024/04/20 06:50:35;;;;;;;39.85;19.38;;;307.80;2304.00;;;;;;5405036;26;20007;-75
2024/04/20 06:53:02;;;;;;;34.05;18.23;;;307.80;2304.00;;;;;;5387623;26;20331;-74
2024/04/20 06:55:28;;;;;;;30.65;17.58;;;308.00;2304.00;;;;;;5415707;26;20080;-75
2024/04/20 06:57:54;;;;;;;28.27;15.90;;;308.10;2304.00;;;;;;5401109;26;20008;-75
2024/04/20 07:00:20;;;;;;;31.80;14.52;;;308.00;2304.00;;;;;;5388008;26;20040;-76
2024/04/20 07:02:46;;;;;;;29.67;14.55;;;332.80;2329.60;;;;;;5400401;26;19996;-75
2024/04/20 07:05:12;;;;;;;32.03;17.35;;;333.00;2329.60;;;;;;5404638;26;19999;-80
2024/04/20 07:07:38;;;;;;;33.20;16.08;;;333.20;2329.60;;;;;;5398076;26;20015;-81
2024/04/20 07:10:05;;;;;;;27.83;15.45;;;333.40;2329.60;;;;;;5395268;26;19997;-77
2024/04/20 07:12:30;;;;;;;31.90;15.00;;;358.40;2329.60;;;;;;5389976;26;20450;-79
2024/04/20 07:14:57;;;;;;;29.90;14.00;;;358.60;2329.60;;;;;;5398397;26;19993;-79
2024/04/20 07:17:23;;;;;;;30.13;14.25;;;358.60;2329.60;;;;;;5397493;26;19996;-78
2024/04/20 07:19:49;;;;;;;26.55;13.85;;;358.80;2278.40;;;;;;5388717;26;20459;-79
2024/04/20 07:22:15;;;;;;;25.25;13.48;;;359.00;2227.20;;;;;;5390536;26;20000;-79
2024/04/20 07:24:41;;;;;;;25.00;10.90;;;359.10;2278.40;;;;;;5382804;26;20452;-77
2024/04/20 07:27:06;;;;;;;24.17;12.90;;;359.20;2073.60;;;;;;5400251;26;19999;-78
2024/04/20 07:29:32;;;;;;;25.92;12.98;;;384.00;2176.00;;;;;;5399487;26;20011;-78
2024/04/20 07:31:58;;;;;;;22.63;11.82;;;384.10;2048.00;;;;;;5404428;26;20010;-79
2024/04/20 07:34:31;;;;;;;24.15;13.63;;;384.50;2073.60;;;;;;5394111;26;19996;-77
2024/04/20 07:36:58;;;;;;;14.55;8.18;;;384.40;1971.20;;;;;;5399453;26;20011;-78
2024/04/20 07:39:23;;;;;;;22.85;10.82;;;384.60;1868.80;;;;;;5386539;26;20004;-78
2024/04/20 07:41:50;;;;;;;18.85;10.63;;;384.60;1894.40;;;;;;5392151;26;20003;-79
2024/04/20 07:44:16;;;;;;;21.15;9.38;;;384.90;1894.40;;;;;;5392322;26;20000;-77
2024/04/20 07:46:55;;;;;;;20.50;10.68;;;409.70;1792.00;;;;;;5396946;26;20017;-76
2024/04/20 07:49:21;;;;;;;27.75;10.98;;;410.00;1868.80;;;;;;5389912;26;20005;-76
2024/04/20 07:51:47;;;;;;;20.63;9.85;;;410.40;1766.40;;;;;;5386856;26;20032;-76
2024/04/20 07:54:13;;;;;;;24.30;9.60;;;410.40;1740.80;;;;;;5398731;26;20442;-80
2024/04/20 07:56:39;;;;;;;17.80;9.27;;;410.20;1715.20;;;;;;5397855;26;20011;-78
2024/04/20 07:59:05;;;;;;;24.83;9.57;;;410.50;1638.40;;;;;;5407068;26;19999;-78
2024/04/20 08:01:30;;;;;;;21.20;10.65;;;410.50;1715.20;;;;;;5402847;26;20020;-78
2024/04/20 08:03:56;;;;;;;21.88;10.40;;;435.20;1638.40;;;;;;5397678;26;19999;-79
2024/04/20 08:06:22;;;;;;;23.33;9.27;;;435.90;1689.60;;;;;;5403255;26;20458;-78
2024/04/20 08:08:49;;;;;;;18.02;9.45;;;435.90;1561.60;;;;;;5400688;26;20020;-77
2024/04/20 08:11:15;;;;;;;21.95;9.77;;;435.70;1484.80;;;;;;5396588;26;20018;-77
2024/04/20 08:13:41;;;;;;;20.13;8.52;;;435.90;1484.80;;;;;;5404920;26;19999;-78
2024/04/20 08:16:06;;;;;;;19.55;8.63;;;460.80;1536.00;;;;;;5412862;26;19991;-75
2024/04/20 08:18:32;;;;;;;22.85;9.57;;;436.10;1484.80;;;;;;5398688;26;20015;-74
2024/04/20 08:20:58;;;;;;;17.98;7.28;;;436.10;1459.20;;;;;;5404617;26;20028;-78
2024/04/20 08:23:24;;;;;;;16.30;8.10;;;460.90;1382.40;;;;;;5402950;26;20004;-79
2024/04/20 08:25:50;;;;;;;12.68;6.35;;;460.80;1484.80;;;;;;5413269;26;20013;-76
2024/04/20 08:28:18;;;;;;;17.20;8.20;;;461.20;1382.40;;;;;;5413740;26;20003;-74
2024/04/20 08:30:44;;;;;;;16.58;6.25;;;461.00;1382.40;;;;;;5407741;26;20068;-75
2024/04/20 08:33:09;;;;;;;14.75;7.70;;;461.50;1254.40;;;;;;5404778;26;20467;-74
2024/04/20 08:35:35;;;;;;;22.17;8.05;;;461.60;1254.40;;;;;;5393766;26;20432;-79
2024/04/20 08:38:01;;;;;;;25.38;13.27;;;461.50;1280.00;;;;;;5396060;26;20435;-75
2024/04/20 08:40:28;;;;;;;21.23;8.23;;;461.50;1331.20;;;;;;5386306;26;20012;-75
2024/04/20 08:42:55;;;;;;;18.02;7.78;;;461.40;1280.00;;;;;;5395841;26;19992;-75
2024/04/20 08:45:23;;;;;;;14.50;7.68;;;486.50;1228.80;;;;;;5392817;26;20004;-75
2024/04/20 08:47:50;;;;;;;14.80;6.43;;;486.40;1254.40;;;;;;5396833;26;20003;-75
2024/04/20 08:50:17;;;;;;;16.85;8.23;;;486.50;1177.60;;;;;;5396308;26;20019;-80
2024/04/20 08:52:46;;;;;;;15.60;7.40;;;486.70;1228.80;;;;;;5386583;26;20010;-76
2024/04/20 08:55:14;;;;;;;15.60;7.70;;;487.20;1203.20;;;;;;5389234;26;20486;-75
2024/04/20 08:57:40;;;;;;;12.27;6.40;;;512.10;1228.80;;;;;;5397695;26;19999;-78
2024/04/20 09:00:06;;;;;;;17.05;7.95;;;512.20;1126.40;;;;;;5395945;26;20000;-76
2024/04/20 09:02:34;;;;;;;15.80;6.90;;;487.30;1203.20;;;;;;5398715;26;20014;-79
2024/04/20 09:05:03;;;;;;;13.18;7.03;;;487.30;1177.60;;;;;;5390464;26;20324;-77
2024/04/20 09:07:29;;;;;;;13.98;7.07;;;512.30;1100.80;;;;;;5395123;26;20011;-78
2024/04/20 09:09:55;;;;;;;12.82;7.15;;;;;;;;;;5404800;26;20007;-76
2024/04/20 09:12:21;;;;;;;14.50;7.68;;;512.70;1049.60;;;;;;5397772;26;19996;-79
2024/04/20 09:14:47;;;;;;;15.48;7.95;;;512.80;1152.00;;;;;;5399890;26;20428;-76
2024/04/20 09:17:12;;;;;;;12.90;6.57;;;512.90;1126.40;;;;;;5405340;26;20014;-76
2024/04/20 09:19:38;;;;;;;15.70;6.68;;;512.50;1152.00;;;;;;5400250;26;20011;-77
2024/04/20 09:22:09;;;;;;;14.02;5.93;;;512.60;1100.80;;;;;;5398707;26;20007;-76
2024/04/20 09:24:34;;;;;;;13.15;5.97;;;512.20;1100.80;;;;;;5390395;26;20550;-77
2024/04/20 09:27:00;;;;;;;14.43;6.10;;;512.70;1152.00;;;;;;5399366;26;20016;-77
2024/04/20 09:29:26;;;;;;;10.48;5.55;;;512.80;1126.40;;;;;;5409887;26;20461;-77
2024/04/20 09:31:53;;;;;;;26.77;12.15;;;537.70;1100.80;;;;;;5403770;26;20008;-77
2024/04/20 09:34:23;;;;;;;14.10;7.15;;;512.70;1075.20;;;;;;5405296;26;20439;-76
2024/04/20 09:36:50;;;;;;;12.82;6.28;;;537.80;1100.80;;;;;;5415469;26;20065;-78
2024/04/20 09:39:16;;;;;;;12.75;6.00;;;537.90;1075.20;;;;;;5413287;26;20007;-78
2024/04/20 09:41:49;;;;;;;12.38;7.07;;;537.80;1075.20;;;;;;5408824;26;20393;-79
2024/04/20 09:44:16;;;;;;;13.65;6.40;;;538.20;1049.60;;;;;;5384552;26;20450;-77
2024/04/20 09:46:50;;;;;;;15.77;5.90;;;538.30;1024.00;;;;;;5409113;26;20003;-76
2024/04/20 09:49:16;;;;;;;14.52;6.40;;;538.00;1126.40;;;;;;5399528;26;19995;-77
2024/04/20 09:52:09;;;;;;;8.50;5.13;;;537.90;1100.80;;;;;;5395877;26;20000;-78
2024/04/20 09:54:48;;;;;;;12.32;6.63;;;512.70;1024.00;;;;;;5405587;26;20516;-78
2024/04/20 09:57:16;;;;;;;13.57;6.72;;;537.60;1024.00;;;;;;5402076;26;19992;-78
2024/04/20 09:59:44;;;;;;;12.10;5.95;;;538.00;1049.60;;;;;;5397586;26;20014;-76
2024/04/20 10:02:11;;;;;;;12.45;6.15;;;538.20;1075.20;;;;;;5408318;26;20000;-77
2024/04/20 10:04:39;;;;;;;13.95;6.05;;;538.30;1049.60;;;;;;5402096;26;20019;-78
2024/04/20 10:07:06;;;;;;;11.77;5.65;;;538.30;1024.00;;;;;;5388652;26;20008;-77
2024/04/20 10:09:35;;;;;;;12.52;6.25;;;563.30;1024.00;;;;;;5394973;26;20065;-77
2024/04/20 10:12:01;;;;;;;13.10;5.70;;;563.30;998.40;;;;;;5392433;26;19999;-77
2024/04/20 10:14:27;;;;;;;14.32;6.63;;;538.50;1049.60;;;;;;5399964;26;20006;-78
2024/04/20 10:16:53;;;;;;;18.25;7.25;;;538.10;1049.60;;;;;;5419423;26;20002;-77
2024/04/20 10:19:20;;;;;;;8.60;4.78;;;538.00;1075.20;;;;;;5409207;26;20000;-79
2024/04/20 10:21:47;;;;;;;12.98;5.53;;;512.90;998.40;;;;;;5400063;26;19995;-77
2024/04/20 10:24:12;;;;;;;12.55;5.82;;;537.80;1075.20;;;;;;5401109;26;19997;-78
2024/04/20 10:26:44;;;;;;;11.35;4.95;;;537.60;1024.00;;;;;;5414535;26;20006;-77
2024/04/20 10:29:20;;;;;;;11.15;6.43;;;538.00;998.40;;;;;;5390706;26;20000;-77
2024/04/20 10:31:59;;;;;;;9.95;6.00;;;538.40;998.40;;;;;;5399474;26;20012;-77
2024/04/20 10:34:25;;;;;;;10.70;5.88;;;563.30;1100.80;;;;;;5394633;26;20301;-77
2024/04/20 10:37:02;;;;;;;10.73;4.50;;;563.40;1049.60;;;;;;5407468;26;20004;-77
2024/04/20 10:39:29;;;;;;;10.10;4.82;;;563.60;1100.80;;;;;;5392784;26;20078;-76
2024/04/20 10:42:08;;;;;;;9.82;5.20;;;563.60;1024.00;;;;;;5402297;26;20004;-79
2024/04/20 10:44:35;;;;;;;10.90;5.22;;;563.90;1049.60;;;;;;5406161;26;19999;-79
2024/04/20 10:47:01;;;;;;;11.32;4.97;;;564.00;1075.20;;;;;;5396486;26;20069;-78
2024/04/20 10:49:27;;;;;;;11.48;5.13;;;564.00;1024.00;;;;;;5412343;26;19999;-79
2024/04/20 10:51:54;;;;;;;9.75;5.57;;;563.70;972.80;;;;;;5400580;26;20008;-80
2024/04/20 10:54:20;;;;;;;7.43;4.80;;;563.20;1075.20;;;;;;5400795;26;20018;-78
2024/04/20 10:56:49;;;;;;;9.82;4.50;;;563.60;1024.00;;;;;;5405269;26;20073;-79
2024/04/20 10:59:16;;;;;;;7.40;4.43;;;564.10;1049.60;;;;;;5398824;26;20008;-80
2024/04/20 11:01:45;;;;;;;9.27;5.22;;;588.90;998.40;;;;;;5391058;26;20019;-80
2024/04/20 11:04:11;;;;;;;10.45;5.50;;;588.90;1024.00;;;;;;5396340;26;20077;-80
2024/04/20 11:06:37;;;;;;;9.05;4.88;;;588.80;1024.00;;;;;;5409464;26;20408;-80
2024/04/20 11:09:09;;;;;;;7.78;5.03;;;589.00;998.40;;;;;;5395904;26;20011;-80
2024/04/20 11:11:35;;;;;;;10.13;5.13;;;588.90;998.40;;;;;;5404305;26;20409;-79
2024/04/20 11:14:01;;;;;;;11.80;5.43;;;589.20;947.20;;;;;;5402253;26;20008;-78
2024/04/20 11:16:27;;;;;;;8.70;5.07;;;564.00;998.40;;;;;;5388483;26;19996;-80
2024/04/20 11:18:53;;;;;;;8.38;4.78;;;588.80;998.40;;;;;;5409141;26;20012;-78
2024/04/20 11:21:19;;;;;;;11.85;5.32;;;589.00;947.20;;;;;;5386742;26;20007;-79
2024/04/20 11:23:45;;;;;;;9.85;5.05;;;589.00;972.80;;;;;;5404512;26;20022;-78
2024/04/20 11:26:11;;;;;;;10.93;5.32;;;564.10;921.60;;;;;;5405460;26;20004;-78
2024/04/20 11:28:38;;;;;;;9.18;4.97;;;589.00;998.40;;;;;;5392738;26;20068;-78
2024/04/20 11:31:06;;;;;;;12.73;4.50;;;589.00;947.20;;;;;;5383223;26;20077;-78
2024/04/20 11:33:32;;;;;;;16.92;4.80;;;589.10;947.20;;;;;;5397933;26;20031;-79
2024/04/20 11:35:59;;;;;;;9.98;4.60;;;589.20;972.80;;;;;;5408096;26;20435;-80
2024/04/20 11:38:25;;;;;;;12.65;4.70;;;588.90;947.20;;;;;;5395148;26;19996;-77
2024/04/20 11:40:52;;;;;;;8.23;5.15;;;589.00;1049.60;;;;;;5405411;26;20011;-78
2024/04/20 11:43:23;;;;;;;9.57;4.97;;;589.00;998.40;;;;;;5394644;26;20000;-78
2024/04/20 11:45:53;;;;;;;10.30;4.78;;;588.90;972.80;;;;;;5397343;26;19999;-78
2024/04/20 11:48:29;;;;;;;7.85;5.07;;;563.60;998.40;;;;;;5405765;26;20004;-78
2024/04/20 11:51:05;;;;;;;11.15;4.95;;;564.00;972.80;;;;;;5401424;26;19999;-79
2024/04/20 11:56:21;;;;;;;8.32;4.50;;;564.10;998.40;;;;;;5395224;26;20537;-79
2024/04/20 11:58:52;;;;;;;12.77;5.05;;;564.10;1024.00;;;;;;5393507;26;20019;-77
2024/04/20 12:01:18;;;;;;;9.30;4.97;;;564.10;1049.60;;;;;;5399723;26;19995;-78
2024/04/20 12:03:45;;;;;;;11.00;5.65;;;564.00;947.20;;;;;;5406103;26;20073;-78
2024/04/20 12:06:12;;;;;;;9.07;5.43;;;538.50;1024.00;;;;;;5403095;26;20010;-78
2024/04/20 12:08:40;;;;;;;8.50;4.53;;;538.30;1024.00;;;;;;5398494;26;20024;-78
2024/04/20 12:11:07;;;;;;;10.23;4.97;;;538.50;1024.00;;;;;;5398797;26;20007;-79
2024/04/20 12:13:35;;;;;;;12.07;4.93;;;563.20;1049.60;;;;;;5386647;26;20015;-79
2024/04/20 12:16:01;;;;;;;8.90;4.45;;;563.60;1075.20;;;;;;5395527;26;20004;-78